Time,TemperatureF,DewpointF,PressureIn,WindDirection,WindDirectionDegrees,WindSpeedMPH,WindSpeedGustMPH,Humidity,HourlyPrecipIn,Conditions,Clouds,dailyrainin,SoftwareType,DateUTC
2013-02-05 00:01:00,18.0,16.0,30.27,WNW,300,0.0,3.0,90,0.00,,,-99.99,,2013-02-05 07:01:00,
2013-02-05 00:11:00,18.0,16.0,30.27,WNW,300,0.0,3.0,90,0.00,,,-99.99,,2013-02-05 07:11:00,
2013-02-05 00:22:00,17.0,15.0,30.28,WNW,300,0.0,2.0,90,0.00,,,-99.99,,2013-02-05 07:22:00,
2013-02-05 00:31:00,17.0,15.0,30.29,WNW,300,0.0,2.0,90,0.00,,,-99.99,,2013-02-05 07:31:00,
2013-02-05 00:41:00,17.0,15.0,30.29,WNW,300,0.0,2.0,90,0.00,,,-99.99,,2013-02-05 07:41:00,
2013-02-05 00:52:00,16.0,14.0,30.29,WNW,300,0.0,1.0,90,0.00,,,-99.99,,2013-02-05 07:52:00,
2013-02-05 01:01:00,16.0,14.0,30.29,NW,310,0.0,3.0,90,0.00,,,-99.99,,2013-02-05 08:01:00,
2013-02-05 01:11:00,16.0,14.0,30.29,NW,310,0.0,3.0,90,0.00,,,-99.99,,2013-02-05 08:11:00,
2013-02-05 01:21:00,16.0,14.0,30.29,NW,310,0.0,2.0,91,0.00,,,-99.99,,2013-02-05 08:21:00,
2013-02-05 01:31:00,16.0,14.0,30.29,NW,310,0.0,0.0,91,0.00,,,-99.99,,2013-02-05 08:31:00,
2013-02-05 01:41:00,16.0,14.0,30.29,NW,310,0.0,0.0,91,0.00,,,-99.99,,2013-02-05 08:41:00,
2013-02-05 01:52:00,15.0,13.0,30.29,NW,310,0.0,0.0,90,0.00,,,-99.99,,2013-02-05 08:52:00,
2013-02-05 02:02:00,15.0,13.0,30.29,NW,310,1.0,2.0,90,0.00,,,-99.99,,2013-02-05 09:02:00,
2013-02-05 02:11:00,15.0,13.0,30.29,NW,310,0.0,2.0,90,0.00,,,-99.99,,2013-02-05 09:11:00,
2013-02-05 02:21:00,15.0,13.0,30.29,NW,310,0.0,2.0,90,0.00,,,-99.99,,2013-02-05 09:21:00,
2013-02-05 02:31:00,13.0,10.0,30.29,NW,310,1.0,2.0,89,0.00,,,-99.99,,2013-02-05 09:31:00,
2013-02-05 02:41:00,13.0,10.0,30.29,NW,310,1.0,2.0,89,0.00,,,-99.99,,2013-02-05 09:41:00,
2013-02-05 02:52:00,13.0,11.0,30.29,NW,310,0.0,3.0,90,0.00,,,-99.99,,2013-02-05 09:52:00,
2013-02-05 03:01:00,13.0,11.0,30.28,NW,310,0.0,0.0,90,0.00,,,-99.99,,2013-02-05 10:01:00,
2013-02-05 03:11:00,13.0,10.0,30.28,NW,310,0.0,0.0,89,0.00,,,-99.99,,2013-02-05 10:11:00,
2013-02-05 03:21:00,13.0,10.0,30.28,NW,310,0.0,0.0,89,0.00,,,-99.99,,2013-02-05 10:21:00,
2013-02-05 03:31:00,13.0,11.0,30.28,NW,310,0.0,0.0,90,0.00,,,-99.99,,2013-02-05 10:31:00,
2013-02-05 03:42:00,13.0,11.0,30.28,NW,310,0.0,0.0,90,0.00,,,-99.99,,2013-02-05 10:42:00,
2013-02-05 03:52:00,12.0,9.0,30.28,NW,310,2.0,2.0,89,0.00,,,-99.99,,2013-02-05 10:52:00,
2013-02-05 04:01:00,12.0,10.0,30.29,NW,310,0.0,0.0,90,0.00,,,-99.99,,2013-02-05 11:01:00,
2013-02-05 04:21:00,12.0,9.0,30.29,NW,310,0.0,0.0,89,0.00,,,-99.99,,2013-02-05 11:21:00,
2013-02-05 04:31:00,11.0,8.0,30.29,NW,310,0.0,2.0,89,0.00,,,-99.99,,2013-02-05 11:31:00,
2013-02-05 04:41:00,11.0,8.0,30.29,NW,310,0.0,2.0,89,0.00,,,-99.99,,2013-02-05 11:41:00,
2013-02-05 04:52:00,11.0,8.0,30.30,NW,310,0.0,0.0,88,0.00,,,-99.99,,2013-02-05 11:52:00,
2013-02-05 05:01:00,10.0,7.0,30.30,NW,310,0.0,2.0,89,0.00,,,-99.99,,2013-02-05 12:01:00,
2013-02-05 05:21:00,10.0,7.0,30.30,NW,310,0.0,0.0,89,0.00,,,-99.99,,2013-02-05 12:21:00,
2013-02-05 05:31:00,10.0,7.0,30.31,NW,310,0.0,0.0,89,0.00,,,-99.99,,2013-02-05 12:31:00,
2013-02-05 05:41:00,10.0,7.0,30.31,NW,310,0.0,0.0,89,0.00,,,-99.99,,2013-02-05 12:41:00,
2013-02-05 05:52:00,10.0,7.0,30.31,NW,310,0.0,0.0,88,0.00,,,-99.99,,2013-02-05 12:52:00,
2013-02-05 06:01:00,9.0,6.0,30.31,NW,310,0.0,0.0,88,0.00,,,-99.99,,2013-02-05 13:01:00,
2013-02-05 06:21:00,9.0,6.0,30.32,NW,310,0.0,0.0,88,0.00,,,-99.99,,2013-02-05 13:21:00,
2013-02-05 06:31:00,7.0,4.0,30.32,NW,310,0.0,3.0,87,0.00,,,-99.99,,2013-02-05 13:31:00,
2013-02-05 06:41:00,7.0,4.0,30.32,NW,310,0.0,3.0,87,0.00,,,-99.99,,2013-02-05 13:41:00,
2013-02-05 06:51:00,8.0,5.0,30.32,NW,310,0.0,0.0,89,0.00,,,-99.99,,2013-02-05 13:51:00,
2013-02-05 07:01:00,8.0,5.0,30.33,NW,310,0.0,0.0,89,0.00,,,-99.99,,2013-02-05 14:01:00,
2013-02-05 07:21:00,8.0,5.0,30.34,NW,310,0.0,0.0,88,0.00,,,-99.99,,2013-02-05 14:21:00,
2013-02-05 07:31:00,8.0,5.0,30.35,NW,310,0.0,0.0,88,0.00,,,-99.99,,2013-02-05 14:31:00,
2013-02-05 07:41:00,8.0,5.0,30.35,NW,310,0.0,0.0,88,0.00,,,-99.99,,2013-02-05 14:41:00,
2013-02-05 07:52:00,8.0,5.0,30.35,NW,310,0.0,2.0,89,0.00,,,-99.99,,2013-02-05 14:52:00,
2013-02-05 08:01:00,7.0,4.0,30.36,NW,310,0.0,0.0,87,0.00,,,-99.99,,2013-02-05 15:01:00,
2013-02-05 08:21:00,9.0,7.0,30.36,NW,310,0.0,0.0,90,0.00,,,-99.99,,2013-02-05 15:21:00,
2013-02-05 08:32:00,11.0,9.0,30.36,NW,310,0.0,1.0,90,0.00,,,-99.99,,2013-02-05 15:32:00,
2013-02-05 08:41:00,11.0,9.0,30.36,NW,310,0.0,1.0,90,0.00,,,-99.99,,2013-02-05 15:41:00,
2013-02-05 08:52:00,11.0,8.0,30.36,NW,310,0.0,0.0,89,0.00,,,-99.99,,2013-02-05 15:52:00,
2013-02-05 09:01:00,13.0,11.0,30.36,NW,310,0.0,0.0,91,0.00,,,-99.99,,2013-02-05 16:01:00,
2013-02-05 09:11:00,13.0,11.0,30.36,NW,310,0.0,0.0,91,0.00,,,-99.99,,2013-02-05 16:11:00,
2013-02-05 09:22:00,14.0,11.0,30.36,NW,310,0.0,1.0,89,0.00,,,-99.99,,2013-02-05 16:22:00,
2013-02-05 09:32:00,16.0,13.0,30.35,NW,310,0.0,2.0,86,0.00,,,-99.99,,2013-02-05 16:32:00,
2013-02-05 09:41:00,16.0,13.0,30.35,NW,310,0.0,2.0,86,0.00,,,-99.99,,2013-02-05 16:41:00,
2013-02-05 09:51:00,18.0,14.0,30.35,NW,310,0.0,0.0,83,0.00,,,-99.99,,2013-02-05 16:51:00,
2013-02-05 10:01:00,20.0,15.0,30.34,NW,310,0.0,2.0,80,0.00,,,-99.99,,2013-02-05 17:01:00,
2013-02-05 10:11:00,20.0,15.0,30.34,NW,310,0.0,2.0,80,0.00,,,-99.99,,2013-02-05 17:11:00,
2013-02-05 10:21:00,22.0,17.0,30.34,NW,310,0.0,1.0,80,0.00,,,-99.99,,2013-02-05 17:21:00,
2013-02-05 10:32:00,24.0,17.0,30.33,NW,310,0.0,1.0,75,0.00,,,-99.99,,2013-02-05 17:32:00,
2013-02-05 10:41:00,24.0,17.0,30.33,NW,310,0.0,1.0,75,0.00,,,-99.99,,2013-02-05 17:41:00,
2013-02-05 10:52:00,27.0,19.0,30.32,NW,310,0.0,1.0,70,0.00,,,-99.99,,2013-02-05 17:52:00,
2013-02-05 11:01:00,28.0,18.0,30.32,NW,310,0.0,1.0,67,0.00,,,-99.99,,2013-02-05 18:01:00,
2013-02-05 11:11:00,28.0,18.0,30.32,NW,310,0.0,1.0,67,0.00,,,-99.99,,2013-02-05 18:11:00,
2013-02-05 11:21:00,31.0,20.0,30.31,NW,310,0.0,1.0,64,0.00,,,-99.99,,2013-02-05 18:21:00,
2013-02-05 11:31:00,35.0,22.0,30.30,NW,310,0.0,1.0,59,0.00,,,-99.99,,2013-02-05 18:31:00,
2013-02-05 11:42:00,35.0,22.0,30.30,NW,310,0.0,1.0,59,0.00,,,-99.99,,2013-02-05 18:42:00,
2013-02-05 11:52:00,34.0,23.0,30.29,NW,310,1.0,2.0,63,0.00,,,-99.99,,2013-02-05 18:52:00,
2013-02-05 12:01:00,37.0,24.0,30.27,NW,310,1.0,3.0,58,0.00,,,-99.99,,2013-02-05 19:01:00,
2013-02-05 12:11:00,37.0,24.0,30.27,NW,310,1.0,3.0,58,0.00,,,-99.99,,2013-02-05 19:11:00,
2013-02-05 12:21:00,39.0,23.0,30.26,NW,310,1.0,2.0,53,0.00,,,-99.99,,2013-02-05 19:21:00,
2013-02-05 12:31:00,41.0,24.0,30.25,NW,310,0.0,3.0,51,0.00,,,-99.99,,2013-02-05 19:31:00,
2013-02-05 12:42:00,41.0,24.0,30.25,NW,310,0.0,3.0,51,0.00,,,-99.99,,2013-02-05 19:42:00,
2013-02-05 12:52:00,43.0,22.0,30.23,WNW,293,2.0,3.0,43,0.00,,,-99.99,,2013-02-05 19:52:00,
2013-02-05 13:01:00,44.0,22.0,30.23,WNW,293,1.0,2.0,41,0.00,,,-99.99,,2013-02-05 20:01:00,
2013-02-05 13:11:00,44.0,22.0,30.23,WNW,293,1.0,2.0,41,0.00,,,-99.99,,2013-02-05 20:11:00,
2013-02-05 13:21:00,45.0,23.0,30.22,SW,223,0.0,6.0,42,0.00,,,-99.99,,2013-02-05 20:21:00,
2013-02-05 13:31:00,47.0,21.0,30.21,SW,220,0.0,4.0,35,0.00,,,-99.99,,2013-02-05 20:31:00,
2013-02-05 13:41:00,47.0,21.0,30.21,SW,220,0.0,4.0,35,0.00,,,-99.99,,2013-02-05 20:41:00,
2013-02-05 13:52:00,47.0,21.0,30.20,SW,219,0.0,2.0,36,0.00,,,-99.99,,2013-02-05 20:52:00,
2013-02-05 14:01:00,47.0,21.0,30.19,SW,217,0.0,2.0,35,0.00,,,-99.99,,2013-02-05 21:01:00,
2013-02-05 14:11:00,47.0,21.0,30.19,SW,217,0.0,2.0,35,0.00,,,-99.99,,2013-02-05 21:11:00,
2013-02-05 14:21:00,48.0,20.0,30.19,East,88,3.0,3.0,32,0.00,,,-99.99,,2013-02-05 21:21:00,
2013-02-05 14:31:00,48.0,20.0,30.19,South,175,1.0,4.0,32,0.00,,,-99.99,,2013-02-05 21:31:00,
2013-02-05 14:41:00,48.0,20.0,30.19,South,175,1.0,4.0,32,0.00,,,-99.99,,2013-02-05 21:41:00,
2013-02-05 14:52:00,49.0,20.0,30.19,WSW,237,0.0,5.0,31,0.00,,,-99.99,,2013-02-05 21:52:00,
2013-02-05 15:01:00,48.0,20.0,30.18,WSW,237,0.0,5.0,33,0.00,,,-99.99,,2013-02-05 22:01:00,
2013-02-05 15:11:00,48.0,20.0,30.18,WSW,237,0.0,5.0,33,0.00,,,-99.99,,2013-02-05 22:11:00,
2013-02-05 15:21:00,48.0,24.0,30.18,West,280,1.0,7.0,38,0.00,,,-99.99,,2013-02-05 22:21:00,
2013-02-05 15:31:00,49.0,25.0,30.18,NW,318,1.0,5.0,39,0.00,,,-99.99,,2013-02-05 22:31:00,
2013-02-05 15:41:00,49.0,25.0,30.18,NW,318,1.0,5.0,39,0.00,,,-99.99,,2013-02-05 22:41:00,
2013-02-05 15:52:00,49.0,24.0,30.18,NW,313,0.0,3.0,37,0.00,,,-99.99,,2013-02-05 22:52:00,
2013-02-05 16:01:00,48.0,23.0,30.18,NW,310,0.0,1.0,37,0.00,,,-99.99,,2013-02-05 23:01:00,
2013-02-05 16:11:00,48.0,23.0,30.18,NW,310,0.0,1.0,37,0.00,,,-99.99,,2013-02-05 23:11:00,
2013-02-05 16:21:00,48.0,24.0,30.17,NW,310,0.0,1.0,39,0.00,,,-99.99,,2013-02-05 23:21:00,
2013-02-05 16:31:00,48.0,24.0,30.17,NW,310,3.0,4.0,39,0.00,,,-99.99,,2013-02-05 23:31:00,
2013-02-05 16:41:00,48.0,24.0,30.17,NW,310,3.0,4.0,39,0.00,,,-99.99,,2013-02-05 23:41:00,
2013-02-05 16:52:00,46.0,25.0,30.17,West,277,0.0,5.0,43,0.00,,,-99.99,,2013-02-05 23:52:00,
2013-02-05 17:01:00,46.0,25.0,30.17,West,266,5.0,6.0,44,0.00,,,-99.99,,2013-02-06 00:01:00,
2013-02-05 17:11:00,46.0,25.0,30.17,West,266,5.0,6.0,44,0.00,,,-99.99,,2013-02-06 00:11:00,
2013-02-05 17:21:00,45.0,26.0,30.17,West,281,1.0,6.0,47,0.00,,,-99.99,,2013-02-06 00:21:00,
2013-02-05 17:31:00,43.0,25.0,30.17,WNW,292,3.0,4.0,48,0.00,,,-99.99,,2013-02-06 00:31:00,
2013-02-05 17:41:00,43.0,25.0,30.17,WNW,292,3.0,4.0,48,0.00,,,-99.99,,2013-02-06 00:41:00,
2013-02-05 17:51:00,41.0,25.0,30.17,WNW,292,0.0,3.0,52,0.00,,,-99.99,,2013-02-06 00:51:00,
2013-02-05 18:01:00,38.0,25.0,30.17,WNW,292,0.0,0.0,59,0.00,,,-99.99,,2013-02-06 01:01:00,
2013-02-05 18:21:00,35.0,24.0,30.18,WNW,292,0.0,2.0,65,0.00,,,-99.99,,2013-02-06 01:21:00,
2013-02-05 18:31:00,33.0,24.0,30.18,WNW,292,0.0,0.0,70,0.00,,,-99.99,,2013-02-06 01:31:00,
2013-02-05 18:41:00,33.0,24.0,30.18,WNW,292,0.0,0.0,70,0.00,,,-99.99,,2013-02-06 01:41:00,
2013-02-05 18:52:00,31.0,24.0,30.18,WNW,292,0.0,0.0,74,0.00,,,-99.99,,2013-02-06 01:52:00,
2013-02-05 19:01:00,30.0,24.0,30.19,WNW,292,0.0,0.0,77,0.00,,,-99.99,,2013-02-06 02:01:00,
2013-02-05 19:11:00,30.0,24.0,30.19,WNW,292,0.0,0.0,77,0.00,,,-99.99,,2013-02-06 02:11:00,
2013-02-05 19:21:00,29.0,23.0,30.19,WNW,292,0.0,0.0,79,0.00,,,-99.99,,2013-02-06 02:21:00,
2013-02-05 19:31:00,28.0,22.0,30.20,WNW,292,0.0,0.0,78,0.00,,,-99.99,,2013-02-06 02:31:00,
2013-02-05 19:41:00,28.0,22.0,30.20,WNW,292,0.0,0.0,78,0.00,,,-99.99,,2013-02-06 02:41:00,
2013-02-05 19:52:00,27.0,22.0,30.20,WNW,292,0.0,0.0,81,0.00,,,-99.99,,2013-02-06 02:52:00,
2013-02-05 20:02:00,26.0,21.0,30.21,WNW,292,0.0,0.0,82,0.00,,,-99.99,,2013-02-06 03:02:00,
2013-02-05 20:11:00,26.0,21.0,30.21,WNW,292,0.0,0.0,82,0.00,,,-99.99,,2013-02-06 03:11:00,
2013-02-05 20:21:00,26.0,22.0,30.21,WNW,292,0.0,0.0,83,0.00,,,-99.99,,2013-02-06 03:21:00,
2013-02-05 20:31:00,25.0,21.0,30.21,WNW,292,0.0,0.0,84,0.00,,,-99.99,,2013-02-06 03:31:00,
2013-02-05 20:42:00,25.0,21.0,30.21,WNW,292,0.0,0.0,84,0.00,,,-99.99,,2013-02-06 03:42:00,
2013-02-05 20:52:00,24.0,20.0,30.22,WNW,292,0.0,0.0,85,0.00,,,-99.99,,2013-02-06 03:52:00,
2013-02-05 21:01:00,24.0,20.0,30.22,WNW,292,0.0,2.0,86,0.00,,,-99.99,,2013-02-06 04:01:00,
2013-02-05 21:11:00,24.0,20.0,30.22,WNW,292,0.0,2.0,86,0.00,,,-99.99,,2013-02-06 04:11:00,
2013-02-05 21:21:00,24.0,21.0,30.22,WNW,292,0.0,0.0,87,0.00,,,-99.99,,2013-02-06 04:21:00,
2013-02-05 21:31:00,23.0,20.0,30.22,WNW,292,0.0,0.0,87,0.00,,,-99.99,,2013-02-06 04:31:00,
2013-02-05 21:41:00,23.0,20.0,30.22,WNW,292,0.0,0.0,87,0.00,,,-99.99,,2013-02-06 04:41:00,
2013-02-05 21:52:00,22.0,19.0,30.23,WNW,292,0.0,0.0,87,0.00,,,-99.99,,2013-02-06 04:52:00,
2013-02-05 22:01:00,22.0,19.0,30.23,WNW,292,0.0,0.0,88,0.00,,,-99.99,,2013-02-06 05:01:00,
2013-02-05 22:11:00,22.0,19.0,30.23,WNW,292,0.0,0.0,88,0.00,,,-99.99,,2013-02-06 05:11:00,
2013-02-05 22:22:00,22.0,19.0,30.23,WNW,292,0.0,0.0,88,0.00,,,-99.99,,2013-02-06 05:22:00,
2013-02-05 22:31:00,22.0,19.0,30.22,WNW,292,0.0,0.0,88,0.00,,,-99.99,,2013-02-06 05:31:00,
2013-02-05 22:41:00,22.0,19.0,30.22,WNW,292,0.0,0.0,88,0.00,,,-99.99,,2013-02-06 05:41:00,
2013-02-05 22:52:00,21.0,18.0,30.22,WNW,292,0.0,0.0,88,0.00,,,-99.99,,2013-02-06 05:52:00,
2013-02-05 23:01:00,21.0,18.0,30.22,WNW,292,0.0,0.0,88,0.00,,,-99.99,,2013-02-06 06:01:00,
2013-02-05 23:11:00,21.0,18.0,30.22,WNW,292,0.0,0.0,88,0.00,,,-99.99,,2013-02-06 06:11:00,
2013-02-05 23:21:00,21.0,18.0,30.23,WNW,292,0.0,0.0,88,0.00,,,-99.99,,2013-02-06 06:21:00,
2013-02-05 23:31:00,20.0,17.0,30.22,WNW,292,0.0,0.0,88,0.00,,,-99.99,,2013-02-06 06:31:00,
2013-02-05 23:42:00,20.0,17.0,30.22,WNW,292,0.0,0.0,88,0.00,,,-99.99,,2013-02-06 06:42:00,
2013-02-05 23:52:00,20.0,17.0,30.22,WNW,292,0.0,0.0,88,0.00,,,-99.99,,2013-02-06 06:52:00,